sensor_id;sensor_type;location;lat;lon;timestamp;temperature;humidity
61351;DHT22;47119;49.130;9.218;2023-09-07T00:01:20;19.90;71.73
61351;DHT22;47119;49.130;9.218;2023-09-07T00:03:50;19.89;71.43
61351;DHT22;47119;49.130;9.218;2023-09-07T00:06:17;19.93;71.66
61351;DHT22;47119;49.130;9.218;2023-09-07T00:08:46;19.89;71.56
61351;DHT22;47119;49.130;9.218;2023-09-07T00:11:13;19.89;71.56
61351;DHT22;47119;49.130;9.218;2023-09-07T00:13:44;19.86;71.39
61351;DHT22;47119;49.130;9.218;2023-09-07T00:16:12;19.89;71.30
61351;DHT22;47119;49.130;9.218;2023-09-07T00:18:42;19.89;71.33
61351;DHT22;47119;49.130;9.218;2023-09-07T00:21:12;19.86;71.11
61351;DHT22;47119;49.130;9.218;2023-09-07T00:23:40;19.89;71.01
61351;DHT22;47119;49.130;9.218;2023-09-07T00:26:07;19.88;71.06
61351;DHT22;47119;49.130;9.218;2023-09-07T00:28:45;19.86;71.05
61351;DHT22;47119;49.130;9.218;2023-09-07T00:31:13;19.82;70.89
61351;DHT22;47119;49.130;9.218;2023-09-07T00:33:40;19.78;71.03
61351;DHT22;47119;49.130;9.218;2023-09-07T00:36:07;19.82;71.03
61351;DHT22;47119;49.130;9.218;2023-09-07T00:38:34;19.82;71.12
61351;DHT22;47119;49.130;9.218;2023-09-07T00:41:04;19.82;70.96
61351;DHT22;47119;49.130;9.218;2023-09-07T00:43:34;19.82;71.32
61351;DHT22;47119;49.130;9.218;2023-09-07T00:46:04;19.82;71.24
61351;DHT22;47119;49.130;9.218;2023-09-07T00:48:35;19.79;71.06
61351;DHT22;47119;49.130;9.218;2023-09-07T00:51:03;19.79;71.23
61351;DHT22;47119;49.130;9.218;2023-09-07T00:53:33;19.74;71.06
61351;DHT22;47119;49.130;9.218;2023-09-07T00:56:03;19.79;71.10
61351;DHT22;47119;49.130;9.218;2023-09-07T00:58:34;19.78;71.51
61351;DHT22;47119;49.130;9.218;2023-09-07T01:01:04;19.78;71.16
61351;DHT22;47119;49.130;9.218;2023-09-07T01:03:31;19.77;71.15
61351;DHT22;47119;49.130;9.218;2023-09-07T01:06:03;19.71;71.38
61351;DHT22;47119;49.130;9.218;2023-09-07T01:08:42;19.78;71.19
61351;DHT22;47119;49.130;9.218;2023-09-07T01:11:14;19.81;71.15
61351;DHT22;47119;49.130;9.218;2023-09-07T01:13:53;19.74;71.06
61351;DHT22;47119;49.130;9.218;2023-09-07T01:16:23;19.69;71.37
61351;DHT22;47119;49.130;9.218;2023-09-07T01:18:50;19.68;71.22
61351;DHT22;47119;49.130;9.218;2023-09-07T01:21:24;19.71;71.34
61351;DHT22;47119;49.130;9.218;2023-09-07T01:23:54;19.68;71.38
61351;DHT22;47119;49.130;9.218;2023-09-07T01:26:29;19.75;71.41
61351;DHT22;47119;49.130;9.218;2023-09-07T01:29:01;19.74;71.54
61351;DHT22;47119;49.130;9.218;2023-09-07T01:31:34;19.78;71.63
61351;DHT22;47119;49.130;9.218;2023-09-07T01:34:02;19.74;71.35
61351;DHT22;47119;49.130;9.218;2023-09-07T01:36:32;19.64;71.72
61351;DHT22;47119;49.130;9.218;2023-09-07T05:39:03;19.20;71.62
61351;DHT22;47119;49.130;9.218;2023-09-07T05:41:31;19.26;71.55
61351;DHT22;47119;49.130;9.218;2023-09-07T05:43:58;19.18;71.55
61351;DHT22;47119;49.130;9.218;2023-09-07T05:46:26;19.17;71.87
61351;DHT22;47119;49.130;9.218;2023-09-07T05:48:54;19.16;71.91
61351;DHT22;47119;49.130;9.218;2023-09-07T05:51:21;19.21;71.72
61351;DHT22;47119;49.130;9.218;2023-09-07T05:53:55;19.24;71.67
61351;DHT22;47119;49.130;9.218;2023-09-07T05:56:23;19.27;71.84
61351;DHT22;47119;49.130;9.218;2023-09-07T05:58:51;19.34;71.79
61351;DHT22;47119;49.130;9.218;2023-09-07T06:01:28;19.43;71.56
61351;DHT22;47119;49.130;9.218;2023-09-07T06:04:07;19.46;71.11
61351;DHT22;47119;49.130;9.218;2023-09-07T06:09:53;19.51;71.06
61351;DHT22;47119;49.130;9.218;2023-09-07T06:12:34;19.51;71.28
61351;DHT22;47119;49.130;9.218;2023-09-07T06:15:17;19.58;71.24
61351;DHT22;47119;49.130;9.218;2023-09-07T06:17:55;19.59;71.02
61351;DHT22;47119;49.130;9.218;2023-09-07T06:20:41;19.64;70.96
61351;DHT22;47119;49.130;9.218;2023-09-07T06:23:36;19.64;70.85
61351;DHT22;47119;49.130;9.218;2023-09-07T06:26:14;19.69;70.61
61351;DHT22;47119;49.130;9.218;2023-09-07T06:28:43;19.68;70.62
61351;DHT22;47119;49.130;9.218;2023-09-07T06:31:10;19.65;70.71
61351;DHT22;47119;49.130;9.218;2023-09-07T06:33:38;19.68;70.57
61351;DHT22;47119;49.130;9.218;2023-09-07T06:36:05;19.71;70.77
61351;DHT22;47119;49.130;9.218;2023-09-07T06:38:33;19.75;70.99
61351;DHT22;47119;49.130;9.218;2023-09-07T06:41:01;19.71;70.93
61351;DHT22;47119;49.130;9.218;2023-09-07T06:43:29;19.71;70.86
61351;DHT22;47119;49.130;9.218;2023-09-07T06:46:03;19.72;70.66
61351;DHT22;47119;49.130;9.218;2023-09-07T06:48:34;19.71;70.83
61351;DHT22;47119;49.130;9.218;2023-09-07T06:51:05;19.77;70.69
61351;DHT22;47119;49.130;9.218;2023-09-07T06:53:34;19.78;70.67
61351;DHT22;47119;49.130;9.218;2023-09-07T06:56:15;19.81;70.70
61351;DHT22;47119;49.130;9.218;2023-09-07T06:58:49;19.79;70.46
61351;DHT22;47119;49.130;9.218;2023-09-07T07:01:18;19.83;70.53
61351;DHT22;47119;49.130;9.218;2023-09-07T07:03:45;19.86;70.85
61351;DHT22;47119;49.130;9.218;2023-09-07T07:06:13;19.85;70.82
61351;DHT22;47119;49.130;9.218;2023-09-07T07:08:47;19.86;70.68
61351;DHT22;47119;49.130;9.218;2023-09-07T07:11:21;19.88;70.60
61351;DHT22;47119;49.130;9.218;2023-09-07T07:13:51;19.82;70.64
61351;DHT22;47119;49.130;9.218;2023-09-07T07:16:19;19.86;70.73
61351;DHT22;47119;49.130;9.218;2023-09-07T07:18:49;19.86;70.62
61351;DHT22;47119;49.130;9.218;2023-09-07T07:21:16;19.89;70.51
61351;DHT22;47119;49.130;9.218;2023-09-07T07:23:43;19.92;70.41
61351;DHT22;47119;49.130;9.218;2023-09-07T07:26:10;19.92;70.41
61351;DHT22;47119;49.130;9.218;2023-09-07T07:28:38;19.95;70.45
61351;DHT22;47119;49.130;9.218;2023-09-07T07:31:11;19.92;71.42
61351;DHT22;47119;49.130;9.218;2023-09-07T07:33:43;19.92;70.48
61351;DHT22;47119;49.130;9.218;2023-09-07T07:36:22;19.98;70.55
61351;DHT22;47119;49.130;9.218;2023-09-07T07:49:00;19.99;70.31
61351;DHT22;47119;49.130;9.218;2023-09-07T07:56:52;20.00;70.59
61351;DHT22;47119;49.130;9.218;2023-09-07T08:00:50;20.04;70.02
61351;DHT22;47119;49.130;9.218;2023-09-07T08:04:00;20.08;70.08
61351;DHT22;47119;49.130;9.218;2023-09-07T09:34:43;20.34;71.10
61351;DHT22;47119;49.130;9.218;2023-09-07T11:23:13;20.54;72.39
61351;DHT22;47119;49.130;9.218;2023-09-07T13:37:26;20.46;75.73
61351;DHT22;47119;49.130;9.218;2023-09-07T13:40:35;20.50;75.00
61351;DHT22;47119;49.130;9.218;2023-09-07T13:43:49;20.47;75.35
61351;DHT22;47119;49.130;9.218;2023-09-07T13:46:23;20.47;74.27
61351;DHT22;47119;49.130;9.218;2023-09-07T13:49:53;20.48;75.31
61351;DHT22;47119;49.130;9.218;2023-09-07T16:08:47;20.48;73.95
61351;DHT22;47119;49.130;9.218;2023-09-07T16:12:24;20.46;73.55
61351;DHT22;47119;49.130;9.218;2023-09-07T16:14:57;20.46;73.16
61351;DHT22;47119;49.130;9.218;2023-09-07T16:17:34;20.48;73.45
61351;DHT22;47119;49.130;9.218;2023-09-07T16:20:32;20.51;73.06
61351;DHT22;47119;49.130;9.218;2023-09-07T16:23:11;20.46;74.53
61351;DHT22;47119;49.130;9.218;2023-09-07T16:26:17;20.48;72.96
61351;DHT22;47119;49.130;9.218;2023-09-07T16:28:46;20.54;74.14
61351;DHT22;47119;49.130;9.218;2023-09-07T16:31:41;20.56;74.44
61351;DHT22;47119;49.130;9.218;2023-09-07T16:34:09;20.53;72.18
61351;DHT22;47119;49.130;9.218;2023-09-07T18:39:26;20.63;73.55
